Time;durP1;ratioP1;P1;durP2;ratioP2;P2;SDS_P1;SDS_P2;PMS_P1;PMS_P2;Temp;Humidity;BMP_temperature;BMP_pressure;BME280_temperature;BME280_humidity;BME280_pressure;Samples;Min_cycle;Max_cycle;Signal;HPM_P1;HPM_P2
2022/03/07 00:00:38;;;;;;;5.10;1.60;;;;;;;;;;5066648;28;20824;-67
2022/03/07 00:03:04;;;;;;;4.00;1.48;;;;;;;;;;5064363;28;20046;-67
2022/03/07 00:05:30;;;;;;;4.18;1.30;;;;;;;;;;5065674;28;20048;-67
2022/03/07 00:07:56;;;;;;;4.25;1.30;;;;;;;;;;5064945;28;20051;-67
2022/03/07 00:10:22;;;;;;;5.32;1.63;;;;;;;;;;5065673;28;20036;-67
2022/03/07 00:12:48;;;;;;;5.00;1.55;;;;;;;;;;5064241;28;20102;-66
2022/03/07 00:15:15;;;;;;;5.47;1.60;;;;;;;;;;5065918;28;20048;-67
2022/03/07 00:17:41;;;;;;;4.28;1.40;;;;;;;;;;5064005;28;20044;-67
2022/03/07 00:20:07;;;;;;;5.50;1.60;;;;;;;;;;5065335;28;20044;-67
2022/03/07 00:22:33;;;;;;;4.18;1.50;;;;;;;;;;5061624;28;20053;-67
2022/03/07 00:24:59;;;;;;;4.05;1.30;;;;;;;;;;5045266;28;20060;-67
2022/03/07 00:27:25;;;;;;;4.15;1.38;;;;;;;;;;5029780;28;20037;-67
2022/03/07 00:29:51;;;;;;;5.03;1.55;;;;;;;;;;5049819;28;20052;-67
2022/03/07 00:32:17;;;;;;;3.35;1.30;;;;;;;;;;5045856;28;20498;-67
2022/03/07 00:34:43;;;;;;;4.35;1.45;;;;;;;;;;5064576;28;20055;-66
2022/03/07 00:37:09;;;;;;;4.82;1.50;;;;;;;;;;5065696;28;20043;-67
2022/03/07 00:39:35;;;;;;;4.53;1.30;;;;;;;;;;5064030;28;20037;-67
2022/03/07 00:42:01;;;;;;;7.13;1.75;;;;;;;;;;5064789;28;20040;-67
2022/03/07 00:44:27;;;;;;;3.95;1.55;;;;;;;;;;5064991;28;20036;-66
2022/03/07 00:46:53;;;;;;;5.00;1.80;;;;;;;;;;5065480;28;20037;-67
2022/03/07 00:49:19;;;;;;;4.47;1.60;;;;;;;;;;5064891;28;20044;-66
2022/03/07 00:51:45;;;;;;;4.70;1.40;;;;;;;;;;5048149;28;20043;-66
2022/03/07 00:54:11;;;;;;;4.20;1.33;;;;;;;;;;5063287;28;20719;-67
2022/03/07 00:56:37;;;;;;;3.80;1.35;;;;;;;;;;5064672;28;20049;-67
2022/03/07 00:59:03;;;;;;;4.18;1.45;;;;;;;;;;5062851;28;20632;-66
2022/03/07 01:01:29;;;;;;;4.07;1.40;;;;;;;;;;5065829;28;20666;-66
2022/03/07 01:03:55;;;;;;;5.00;1.40;;;;;;;;;;5050411;28;20041;-67
2022/03/07 01:06:22;;;;;;;4.53;1.60;;;;;;;;;;5043794;28;20469;-67
2022/03/07 01:08:48;;;;;;;4.80;1.35;;;;;;;;;;5056197;28;20048;-67
2022/03/07 01:11:14;;;;;;;4.65;1.50;;;;;;;;;;5038539;28;20114;-67
2022/03/07 01:13:40;;;;;;;4.55;1.60;;;;;;;;;;5043749;28;20480;-67
2022/03/07 01:16:06;;;;;;;4.53;1.50;;;;;;;;;;5044629;28;20044;-67
2022/03/07 01:18:32;;;;;;;3.70;1.20;;;;;;;;;;5054799;28;20044;-67
2022/03/07 01:20:58;;;;;;;4.68;1.45;;;;;;;;;;5065644;28;20047;-66
2022/03/07 01:23:24;;;;;;;4.18;1.45;;;;;;;;;;5045882;28;20049;-67
2022/03/07 01:25:51;;;;;;;5.38;1.50;;;;;;;;;;5065315;28;20115;-67
2022/03/07 01:28:17;;;;;;;5.00;1.52;;;;;;;;;;5053975;28;20040;-67
2022/03/07 01:30:43;;;;;;;4.28;1.40;;;;;;;;;;5043851;28;20049;-67
2022/03/07 01:33:09;;;;;;;4.35;1.30;;;;;;;;;;5042120;28;20029;-67
2022/03/07 01:35:35;;;;;;;4.18;1.50;;;;;;;;;;5043483;28;20061;-67
2022/03/07 01:38:01;;;;;;;4.13;1.42;;;;;;;;;;5050001;28;20052;-67
2022/03/07 01:40:27;;;;;;;3.97;1.40;;;;;;;;;;5063559;28;20127;-67
2022/03/07 01:42:53;;;;;;;4.10;1.35;;;;;;;;;;5062101;28;20051;-66
2022/03/07 01:45:19;;;;;;;3.20;1.13;;;;;;;;;;5064885;28;20501;-66
2022/03/07 01:47:46;;;;;;;4.07;1.40;;;;;;;;;;5057519;28;20056;-66
2022/03/07 01:50:13;;;;;;;4.13;1.15;;;;;;;;;;5042459;28;20711;-66
2022/03/07 01:52:40;;;;;;;4.13;1.33;;;;;;;;;;5029644;28;20097;-66
2022/03/07 01:55:08;;;;;;;4.38;1.63;;;;;;;;;;5063464;28;20105;-66
2022/03/07 01:57:36;;;;;;;5.68;1.48;;;;;;;;;;5059910;28;20650;-66
2022/03/07 02:00:04;;;;;;;3.55;1.23;;;;;;;;;;5026881;28;20056;-66
2022/03/07 02:02:30;;;;;;;4.00;1.33;;;;;;;;;;5045542;28;20102;-66
2022/03/07 02:04:56;;;;;;;5.13;1.42;;;;;;;;;;5063247;28;20090;-66
2022/03/07 02:07:24;;;;;;;3.25;1.30;;;;;;;;;;5062957;28;20597;-66
2022/03/07 02:09:51;;;;;;;3.38;1.23;;;;;;;;;;5064593;28;20052;-66
2022/03/07 02:12:17;;;;;;;3.22;1.10;;;;;;;;;;5063805;28;20120;-66
2022/03/07 02:14:43;;;;;;;3.83;1.27;;;;;;;;;;5043305;28;20045;-66
2022/03/07 02:17:09;;;;;;;3.58;1.30;;;;;;;;;;5043113;28;20068;-66
2022/03/07 02:19:36;;;;;;;4.72;1.38;;;;;;;;;;5063001;28;20037;-66
2022/03/07 02:22:03;;;;;;;3.70;1.20;;;;;;;;;;5066167;28;20548;-66
2022/03/07 02:24:29;;;;;;;5.32;1.70;;;;;;;;;;5065139;28;20062;-66
2022/03/07 02:27:05;;;;;;;3.83;1.17;;;;;;;;;;5066835;28;20068;-66
2022/03/07 02:29:32;;;;;;;5.05;1.40;;;;;;;;;;5065988;28;20049;-66
2022/03/07 02:31:58;;;;;;;4.20;1.40;;;;;;;;;;5067010;28;20064;-66
2022/03/07 02:34:24;;;;;;;5.00;1.30;;;;;;;;;;5067109;28;20048;-66
2022/03/07 02:36:50;;;;;;;3.55;1.20;;;;;;;;;;5067167;28;20040;-66
2022/03/07 02:39:16;;;;;;;4.28;1.88;;;;;;;;;;5048467;28;20047;-66
2022/03/07 02:41:42;;;;;;;4.40;1.38;;;;;;;;;;5066531;28;20699;-66
2022/03/07 02:44:09;;;;;;;4.25;1.30;;;;;;;;;;5065743;28;20044;-66
2022/03/07 02:46:35;;;;;;;5.30;1.30;;;;;;;;;;5066227;28;20045;-66
2022/03/07 02:49:01;;;;;;;4.88;1.50;;;;;;;;;;5065488;28;20090;-66
2022/03/07 02:51:27;;;;;;;3.92;1.40;;;;;;;;;;5049614;28;20044;-66
2022/03/07 02:53:53;;;;;;;3.05;1.20;;;;;;;;;;5065199;28;21668;-66
2022/03/07 02:56:19;;;;;;;3.75;1.50;;;;;;;;;;5067592;28;20100;-66
2022/03/07 02:58:45;;;;;;;4.18;1.10;;;;;;;;;;5064693;28;20048;-66
2022/03/07 03:01:11;;;;;;;3.55;1.40;;;;;;;;;;5066102;28;20040;-66
2022/03/07 03:03:37;;;;;;;3.70;1.30;;;;;;;;;;5048222;28;20044;-66
2022/03/07 03:06:04;;;;;;;3.97;1.50;;;;;;;;;;5066455;28;20042;-66
2022/03/07 03:08:30;;;;;;;3.65;1.23;;;;;;;;;;5048195;28;20033;-66
2022/03/07 03:10:57;;;;;;;4.95;1.30;;;;;;;;;;5066385;28;20101;-66
2022/03/07 03:13:23;;;;;;;3.75;1.30;;;;;;;;;;5064714;28;20486;-66
2022/03/07 03:15:50;;;;;;;3.35;1.25;;;;;;;;;;5048994;28;20052;-66
2022/03/07 03:18:16;;;;;;;4.97;1.40;;;;;;;;;;5057496;28;20464;-66
2022/03/07 03:20:43;;;;;;;3.72;1.08;;;;;;;;;;5046113;28;20045;-66
2022/03/07 03:23:09;;;;;;;4.32;1.33;;;;;;;;;;5052589;28;20048;-66
2022/03/07 03:25:35;;;;;;;5.43;1.55;;;;;;;;;;5049681;28;20055;-66
2022/03/07 03:28:01;;;;;;;3.55;1.05;;;;;;;;;;5064213;28;20040;-66
2022/03/07 03:30:27;;;;;;;3.28;1.20;;;;;;;;;;5065416;28;20041;-66
2022/03/07 03:32:53;;;;;;;3.63;1.13;;;;;;;;;;5058299;28;20048;-66
2022/03/07 03:35:20;;;;;;;3.97;1.35;;;;;;;;;;5037770;28;20056;-66
2022/03/07 03:37:46;;;;;;;3.28;1.30;;;;;;;;;;5037420;28;20052;-66
2022/03/07 03:40:12;;;;;;;2.90;1.10;;;;;;;;;;5045513;28;20122;-66
2022/03/07 03:42:39;;;;;;;4.13;1.30;;;;;;;;;;5032110;28;20037;-66
2022/03/07 03:45:08;;;;;;;4.22;1.08;;;;;;;;;;5065180;28;20036;-66
2022/03/07 03:47:34;;;;;;;4.95;1.40;;;;;;;;;;5063135;28;20044;-66
2022/03/07 03:50:00;;;;;;;2.90;1.30;;;;;;;;;;5065069;28;20541;-66
2022/03/07 03:52:26;;;;;;;3.70;1.30;;;;;;;;;;5062492;28;20050;-66
2022/03/07 03:54:55;;;;;;;3.88;1.25;;;;;;;;;;5044562;28;20693;-66
2022/03/07 03:57:21;;;;;;;3.42;1.25;;;;;;;;;;5044879;28;20106;-66
2022/03/07 03:59:47;;;;;;;3.28;1.10;;;;;;;;;;5047959;28;20526;-66
2022/03/07 04:02:13;;;;;;;2.92;1.08;;;;;;;;;;5063822;28;20064;-66
2022/03/07 04:04:39;;;;;;;2.78;1.15;;;;;;;;;;5028593;28;20622;-66
2022/03/07 04:07:05;;;;;;;3.97;1.15;;;;;;;;;;5046239;28;20106;-66
2022/03/07 04:09:31;;;;;;;3.60;1.20;;;;;;;;;;5063830;28;20040;-66
2022/03/07 04:11:57;;;;;;;3.80;1.15;;;;;;;;;;5048228;28;20063;-66
2022/03/07 04:14:23;;;;;;;4.18;1.27;;;;;;;;;;5050265;28;20052;-66
2022/03/07 04:16:49;;;;;;;5.03;1.50;;;;;;;;;;5044887;28;20529;-66
2022/03/07 04:19:15;;;;;;;3.80;1.40;;;;;;;;;;5061557;28;20093;-66
2022/03/07 04:21:41;;;;;;;4.32;1.17;;;;;;;;;;5064824;28;20132;-66
2022/03/07 04:24:08;;;;;;;2.92;1.10;;;;;;;;;;5062867;28;20186;-66
2022/03/07 04:26:34;;;;;;;3.97;1.45;;;;;;;;;;5060910;28;20072;-66
2022/03/07 04:29:00;;;;;;;3.75;1.00;;;;;;;;;;5042287;28;20044;-66
2022/03/07 04:31:27;;;;;;;3.33;1.45;;;;;;;;;;5058907;28;20059;-66
2022/03/07 04:33:53;;;;;;;4.70;1.40;;;;;;;;;;5049194;28;20049;-66
2022/03/07 04:36:19;;;;;;;3.72;1.35;;;;;;;;;;5044840;28;20041;-66
2022/03/07 04:38:45;;;;;;;3.38;1.30;;;;;;;;;;5056486;28;20051;-66
2022/03/07 04:41:11;;;;;;;5.43;1.35;;;;;;;;;;5063957;28;20048;-66
2022/03/07 04:43:37;;;;;;;3.25;1.20;;;;;;;;;;5061971;28;20722;-66
2022/03/07 04:46:04;;;;;;;4.00;1.27;;;;;;;;;;5046943;28;20123;-66
2022/03/07 04:48:31;;;;;;;4.60;1.45;;;;;;;;;;5062773;28;20041;-66
2022/03/07 04:50:57;;;;;;;3.97;1.45;;;;;;;;;;5047106;28;20040;-66
2022/03/07 04:53:23;;;;;;;3.90;1.45;;;;;;;;;;5063654;28;20044;-66
2022/03/07 04:55:49;;;;;;;5.03;1.35;;;;;;;;;;5063695;28;20074;-66
2022/03/07 04:58:15;;;;;;;3.03;1.20;;;;;;;;;;5063549;28;20044;-66
2022/03/07 05:00:41;;;;;;;4.72;1.45;;;;;;;;;;5047283;28;20093;-66
2022/03/07 05:03:07;;;;;;;4.22;1.50;;;;;;;;;;5061685;28;20059;-66
2022/03/07 05:05:32;;;;;;;3.28;1.25;;;;;;;;;;5046952;28;20041;-66
2022/03/07 05:07:58;;;;;;;3.67;1.50;;;;;;;;;;5062003;28;20107;-66
2022/03/07 05:10:24;;;;;;;4.95;1.40;;;;;;;;;;5063926;28;20123;-66
2022/03/07 05:12:50;;;;;;;3.88;1.25;;;;;;;;;;5062486;28;20033;-66
2022/03/07 05:15:16;;;;;;;5.75;1.60;;;;;;;;;;5063896;28;20055;-66
2022/03/07 05:17:42;;;;;;;4.63;1.33;;;;;;;;;;5062314;28;20044;-66
2022/03/07 05:20:09;;;;;;;3.97;1.45;;;;;;;;;;5063814;28;20529;-66
2022/03/07 05:22:35;;;;;;;2.95;1.20;;;;;;;;;;5061929;28;20082;-66
2022/03/07 05:25:01;;;;;;;4.38;1.50;;;;;;;;;;5064078;28;20488;-66
2022/03/07 05:27:27;;;;;;;4.05;1.40;;;;;;;;;;5062729;28;20040;-66
2022/03/07 05:29:53;;;;;;;4.10;1.27;;;;;;;;;;5046619;28;20047;-66
2022/03/07 05:32:19;;;;;;;3.78;1.33;;;;;;;;;;5061436;28;20513;-66
2022/03/07 05:34:45;;;;;;;4.18;1.35;;;;;;;;;;5064121;28;20048;-66
2022/03/07 05:37:11;;;;;;;4.28;1.55;;;;;;;;;;5064208;28;20054;-66
2022/03/07 05:39:37;;;;;;;4.00;1.58;;;;;;;;;;5062418;28;20040;-66
2022/03/07 05:42:03;;;;;;;3.85;1.33;;;;;;;;;;5046733;28;20052;-66
2022/03/07 05:44:29;;;;;;;3.17;1.33;;;;;;;;;;5063001;28;20173;-66
2022/03/07 05:46:55;;;;;;;2.95;1.20;;;;;;;;;;5058336;28;20078;-66
2022/03/07 05:49:21;;;;;;;3.45;1.30;;;;;;;;;;5025381;28;21147;-66
2022/03/07 05:51:47;;;;;;;3.75;1.27;;;;;;;;;;5034758;28;20052;-66
2022/03/07 05:54:13;;;;;;;3.63;1.45;;;;;;;;;;5067826;28;20119;-66
2022/03/07 05:56:39;;;;;;;4.82;1.67;;;;;;;;;;5087666;28;20097;-66
2022/03/07 05:59:05;;;;;;;3.88;1.30;;;;;;;;;;5069839;28;20040;-66
2022/03/07 06:01:31;;;;;;;4.78;1.38;;;;;;;;;;5056441;28;20045;-66
2022/03/07 06:03:57;;;;;;;3.75;1.58;;;;;;;;;;5040997;28;20043;-66
2022/03/07 06:06:23;;;;;;;3.92;1.55;;;;;;;;;;5049781;28;20531;-66
2022/03/07 06:08:49;;;;;;;4.30;1.50;;;;;;;;;;5065446;28;20048;-66
2022/03/07 06:11:15;;;;;;;3.97;1.30;;;;;;;;;;5067548;28;20036;-66
2022/03/07 06:13:41;;;;;;;5.65;1.60;;;;;;;;;;5066987;28;20682;-66
2022/03/07 06:16:08;;;;;;;4.70;1.45;;;;;;;;;;5066979;28;20048;-66
2022/03/07 06:18:33;;;;;;;3.13;1.30;;;;;;;;;;5066013;28;20044;-66
2022/03/07 06:20:59;;;;;;;4.90;1.50;;;;;;;;;;5067276;28;20135;-66
2022/03/07 06:23:25;;;;;;;3.85;1.60;;;;;;;;;;5053531;28;21349;-66
2022/03/07 06:25:51;;;;;;;4.38;1.30;;;;;;;;;;5046285;28;20069;-66
2022/03/07 06:28:17;;;;;;;4.18;1.42;;;;;;;;;;5039467;28;20040;-66
2022/03/07 06:30:47;;;;;;;3.58;1.30;;;;;;;;;;5051038;28;20036;-66
2022/03/07 06:33:13;;;;;;;3.67;1.30;;;;;;;;;;5065264;28;20047;-66
2022/03/07 06:35:39;;;;;;;4.68;1.60;;;;;;;;;;5067007;28;20849;-65
2022/03/07 06:38:06;;;;;;;4.32;1.40;;;;;;;;;;5064974;28;20046;-66
2022/03/07 06:40:32;;;;;;;5.40;1.77;;;;;;;;;;5033903;28;20592;-66
2022/03/07 06:43:00;;;;;;;4.40;1.40;;;;;;;;;;5013858;28;20520;-66
2022/03/07 06:45:26;;;;;;;5.85;1.50;;;;;;;;;;5024155;28;20067;-66
2022/03/07 06:47:53;;;;;;;6.18;1.65;;;;;;;;;;5046840;28;20737;-66
2022/03/07 06:50:18;;;;;;;6.93;1.40;;;;;;;;;;5031901;28;20306;-66
2022/03/07 06:52:44;;;;;;;3.45;1.50;;;;;;;;;;5043460;28;20044;-66
2022/03/07 06:55:11;;;;;;;3.95;1.40;;;;;;;;;;5048522;28;20693;-66
2022/03/07 06:57:37;;;;;;;4.63;1.45;;;;;;;;;;5049331;28;20049;-66
2022/03/07 07:00:04;;;;;;;8.00;1.88;;;;;;;;;;5033292;28;20052;-66
2022/03/07 07:02:30;;;;;;;13.65;2.35;;;;;;;;;;5028630;28;20099;-67
2022/03/07 07:04:58;;;;;;;10.90;1.95;;;;;;;;;;5038240;28;20036;-66
2022/03/07 07:07:24;;;;;;;9.27;1.70;;;;;;;;;;5051987;28;20458;-66
2022/03/07 07:09:50;;;;;;;7.72;2.05;;;;;;;;;;5066769;28;20124;-66
2022/03/07 07:12:16;;;;;;;11.25;2.17;;;;;;;;;;5065511;28;20135;-66
2022/03/07 07:14:42;;;;;;;8.50;2.00;;;;;;;;;;5017547;28;20597;-66
2022/03/07 07:17:08;;;;;;;10.85;2.20;;;;;;;;;;5034031;28;20043;-66
2022/03/07 07:19:34;;;;;;;6.95;2.08;;;;;;;;;;5050787;28;20127;-66
2022/03/07 07:22:00;;;;;;;8.60;2.20;;;;;;;;;;5046838;28;20727;-66
2022/03/07 07:24:26;;;;;;;6.38;1.98;;;;;;;;;;5046109;28;20044;-66
2022/03/07 07:26:52;;;;;;;8.45;2.00;;;;;;;;;;5051465;28;20119;-66
2022/03/07 07:29:18;;;;;;;5.65;1.58;;;;;;;;;;5050358;28;20116;-66
2022/03/07 07:31:44;;;;;;;5.97;1.88;;;;;;;;;;5031733;28;20041;-66
2022/03/07 07:34:10;;;;;;;6.75;1.90;;;;;;;;;;5048246;28;20580;-67
2022/03/07 07:36:36;;;;;;;6.25;1.80;;;;;;;;;;5052991;28;20041;-66
2022/03/07 07:39:02;;;;;;;16.67;2.10;;;;;;;;;;5048229;28;20041;-67
2022/03/07 07:41:28;;;;;;;7.80;1.70;;;;;;;;;;5045555;28;20045;-67
2022/03/07 07:43:54;;;;;;;7.72;1.50;;;;;;;;;;5057145;28;20074;-67
2022/03/07 07:46:20;;;;;;;6.55;1.75;;;;;;;;;;5063992;28;20116;-67
2022/03/07 07:48:46;;;;;;;5.90;1.60;;;;;;;;;;5062916;28;20033;-67
2022/03/07 07:51:12;;;;;;;7.53;1.83;;;;;;;;;;5064888;28;20051;-67
2022/03/07 07:53:38;;;;;;;6.30;1.92;;;;;;;;;;5064020;28;20556;-67
2022/03/07 07:56:04;;;;;;;5.00;1.50;;;;;;;;;;5066003;28;20043;-67
2022/03/07 07:58:30;;;;;;;7.50;1.80;;;;;;;;;;5064156;28;20406;-67
2022/03/07 08:00:56;;;;;;;4.70;1.70;;;;;;;;;;5064484;28;20048;-66
2022/03/07 08:03:22;;;;;;;7.03;1.73;;;;;;;;;;5054765;28;20037;-67
2022/03/07 08:05:48;;;;;;;5.65;1.65;;;;;;;;;;5045319;28;20132;-66
2022/03/07 08:08:18;;;;;;;5.60;1.35;;;;;;;;;;5052047;28;20104;-66
2022/03/07 08:10:44;;;;;;;6.78;1.40;;;;;;;;;;5064733;28;20540;-67
2022/03/07 08:13:11;;;;;;;6.15;1.80;;;;;;;;;;5062814;28;20718;-67
2022/03/07 08:15:37;;;;;;;4.55;1.50;;;;;;;;;;5064519;28;20055;-67
2022/03/07 08:18:03;;;;;;;6.30;1.83;;;;;;;;;;5046354;28;20724;-67
2022/03/07 08:20:29;;;;;;;5.20;2.03;;;;;;;;;;5063938;28;20067;-67
2022/03/07 08:22:56;;;;;;;5.70;1.33;;;;;;;;;;5056434;28;20565;-67
2022/03/07 08:25:23;;;;;;;4.50;1.42;;;;;;;;;;5043614;28;20049;-67
2022/03/07 08:27:49;;;;;;;4.40;1.52;;;;;;;;;;5032237;28;20659;-67
2022/03/07 08:30:16;;;;;;;6.22;1.50;;;;;;;;;;5063866;28;20075;-67
2022/03/07 08:32:42;;;;;;;6.80;1.60;;;;;;;;;;5061741;28;20086;-67
2022/03/07 08:35:09;;;;;;;5.40;1.35;;;;;;;;;;5064009;28;20623;-67
2022/03/07 08:37:35;;;;;;;5.00;1.70;;;;;;;;;;5062238;28;20475;-67
2022/03/07 08:40:01;;;;;;;3.55;1.38;;;;;;;;;;5064553;28;20046;-67
2022/03/07 08:42:27;;;;;;;4.20;1.35;;;;;;;;;;5045477;28;20056;-67
2022/03/07 08:44:54;;;;;;;6.35;1.40;;;;;;;;;;5046764;28;20043;-67
2022/03/07 08:47:20;;;;;;;6.07;1.70;;;;;;;;;;5062555;28;20032;-67
2022/03/07 08:49:46;;;;;;;4.13;1.38;;;;;;;;;;5047265;28;20417;-67
2022/03/07 08:52:15;;;;;;;3.22;1.17;;;;;;;;;;5062538;28;20051;-67
2022/03/07 08:54:44;;;;;;;6.75;1.50;;;;;;;;;;5043307;28;20114;-67
2022/03/07 08:57:11;;;;;;;4.47;1.42;;;;;;;;;;5043255;28;20049;-66
2022/03/07 08:59:37;;;;;;;3.20;1.05;;;;;;;;;;5043389;28;20048;-67
2022/03/07 09:02:04;;;;;;;3.80;1.27;;;;;;;;;;5043034;28;20068;-67
2022/03/07 09:04:30;;;;;;;3.63;1.20;;;;;;;;;;5045826;28;20043;-67
2022/03/07 09:06:56;;;;;;;3.97;1.20;;;;;;;;;;5063385;28;20040;-67
2022/03/07 09:09:22;;;;;;;5.13;1.30;;;;;;;;;;5062179;28;20040;-67
2022/03/07 09:11:48;;;;;;;3.00;1.13;;;;;;;;;;5063340;28;20101;-66
2022/03/07 09:14:15;;;;;;;3.08;1.20;;;;;;;;;;5061440;28;20066;-67
2022/03/07 09:16:42;;;;;;;3.33;1.25;;;;;;;;;;5063353;28;20090;-67
2022/03/07 09:19:08;;;;;;;4.43;1.10;;;;;;;;;;5045321;28;20086;-67
2022/03/07 09:21:34;;;;;;;3.22;1.10;;;;;;;;;;5063384;28;20040;-67
2022/03/07 09:24:00;;;;;;;3.65;1.20;;;;;;;;;;5061367;28;20052;-66
2022/03/07 09:26:26;;;;;;;2.90;1.00;;;;;;;;;;5063199;28;20056;-66
2022/03/07 09:28:52;;;;;;;4.45;1.48;;;;;;;;;;5061893;28;20545;-66
2022/03/07 09:31:18;;;;;;;3.20;1.15;;;;;;;;;;5062927;28;20084;-66
2022/03/07 09:33:44;;;;;;;3.72;1.20;;;;;;;;;;5061202;28;20110;-67
2022/03/07 09:36:10;;;;;;;4.28;1.25;;;;;;;;;;5061978;28;20120;-67
2022/03/07 09:38:36;;;;;;;4.55;1.23;;;;;;;;;;5060883;28;20045;-67
2022/03/07 09:41:03;;;;;;;3.80;1.17;;;;;;;;;;5062929;28;20044;-67
2022/03/07 09:43:30;;;;;;;3.50;1.13;;;;;;;;;;5062305;28;20544;-67
2022/03/07 09:45:56;;;;;;;3.88;1.27;;;;;;;;;;5063954;28;20077;-66
2022/03/07 09:48:23;;;;;;;3.63;1.20;;;;;;;;;;5044764;28;20048;-67
2022/03/07 09:50:49;;;;;;;3.85;1.23;;;;;;;;;;5063309;28;20040;-67
2022/03/07 09:53:17;;;;;;;4.07;1.05;;;;;;;;;;5061395;28;20355;-67
2022/03/07 09:55:43;;;;;;;5.15;1.40;;;;;;;;;;5063071;28;20066;-66
2022/03/07 09:58:09;;;;;;;5.13;1.15;;;;;;;;;;5061525;28;20722;-67
2022/03/07 10:00:35;;;;;;;3.90;1.10;;;;;;;;;;5063309;28;20693;-67
2022/03/07 10:03:05;;;;;;;3.90;1.10;;;;;;;;;;5045101;28;20051;-67
2022/03/07 10:05:36;;;;;;;4.75;1.15;;;;;;;;;;5063532;28;20127;-67
2022/03/07 10:08:02;;;;;;;4.40;1.23;;;;;;;;;;5062773;28;20040;-67
2022/03/07 10:10:32;;;;;;;2.42;0.98;;;;;;;;;;5062627;28;20041;-67
2022/03/07 10:13:02;;;;;;;3.83;1.02;;;;;;;;;;5061398;28;20623;-67
2022/03/07 10:15:28;;;;;;;3.17;1.05;;;;;;;;;;5063543;28;20040;-67
2022/03/07 10:17:55;;;;;;;4.35;1.10;;;;;;;;;;5061029;28;20123;-67
2022/03/07 10:20:21;;;;;;;3.13;0.82;;;;;;;;;;5046245;28;20048;-67
2022/03/07 10:22:49;;;;;;;3.65;1.00;;;;;;;;;;5060462;28;20063;-68
2022/03/07 10:25:15;;;;;;;3.05;1.10;;;;;;;;;;5062636;28;20045;-67
2022/03/07 10:27:44;;;;;;;3.33;1.00;;;;;;;;;;5045366;28;20185;-67
2022/03/07 10:30:11;;;;;;;2.63;0.85;;;;;;;;;;5063010;28;20041;-68
2022/03/07 10:32:37;;;;;;;3.58;1.00;;;;;;;;;;5044274;28;20068;-68
2022/03/07 10:35:03;;;;;;;4.07;1.13;;;;;;;;;;5062910;28;20049;-68
2022/03/07 10:37:37;;;;;;;3.97;0.90;;;;;;;;;;5061063;28;20713;-67
2022/03/07 10:40:04;;;;;;;3.28;1.05;;;;;;;;;;5062205;28;20644;-67
2022/03/07 10:42:30;;;;;;;3.53;1.10;;;;;;;;;;5062289;28;20041;-67
2022/03/07 10:45:06;;;;;;;3.80;0.90;;;;;;;;;;5064453;28;20520;-68
2022/03/07 10:47:32;;;;;;;2.70;1.00;;;;;;;;;;5064684;28;20523;-67
2022/03/07 10:50:00;;;;;;;2.88;0.80;;;;;;;;;;5066061;28;20131;-68
2022/03/07 10:52:26;;;;;;;3.47;1.00;;;;;;;;;;5048571;28;20055;-67
2022/03/07 10:54:52;;;;;;;3.85;1.02;;;;;;;;;;5065381;28;20087;-67
2022/03/07 10:57:19;;;;;;;4.25;1.00;;;;;;;;;;5064718;28;20063;-67
2022/03/07 10:59:46;;;;;;;4.10;1.10;;;;;;;;;;5067417;28;20131;-67
2022/03/07 11:02:17;;;;;;;3.67;0.85;;;;;;;;;;5064918;28;20075;-68
2022/03/07 11:04:43;;;;;;;4.10;1.15;;;;;;;;;;5045650;28;20040;-67
2022/03/07 11:07:10;;;;;;;3.90;0.93;;;;;;;;;;5045329;28;20080;-67
2022/03/07 11:09:40;;;;;;;4.90;1.20;;;;;;;;;;5064375;28;20048;-67
2022/03/07 11:12:06;;;;;;;3.55;1.10;;;;;;;;;;5066926;28;20120;-67
2022/03/07 11:14:33;;;;;;;4.30;1.17;;;;;;;;;;5064488;28;20070;-66
2022/03/07 11:16:59;;;;;;;3.42;0.88;;;;;;;;;;5064903;28;20086;-67
2022/03/07 11:19:26;;;;;;;3.53;0.98;;;;;;;;;;5047781;28;20037;-66
2022/03/07 11:21:53;;;;;;;4.53;1.20;;;;;;;;;;5066507;28;20075;-66
2022/03/07 11:24:20;;;;;;;2.97;1.17;;;;;;;;;;5064579;28;20055;-67
2022/03/07 11:26:47;;;;;;;2.67;0.80;;;;;;;;;;5065018;28;20041;-67
2022/03/07 11:29:13;;;;;;;3.25;1.00;;;;;;;;;;5064807;28;20497;-66
2022/03/07 11:31:39;;;;;;;4.25;0.90;;;;;;;;;;5065200;28;20047;-67
2022/03/07 11:34:09;;;;;;;2.50;1.00;;;;;;;;;;5063552;28;20040;-67
2022/03/07 11:36:40;;;;;;;4.20;1.05;;;;;;;;;;5065423;28;20075;-66
2022/03/07 11:39:06;;;;;;;4.60;1.00;;;;;;;;;;5063196;28;20052;-67
2022/03/07 11:41:37;;;;;;;3.20;1.00;;;;;;;;;;5066325;28;20063;-66
2022/03/07 11:44:03;;;;;;;2.42;0.80;;;;;;;;;;5048980;28;20641;-66
2022/03/07 11:46:33;;;;;;;3.97;0.82;;;;;;;;;;5046854;28;20052;-66
2022/03/07 11:48:59;;;;;;;2.75;0.93;;;;;;;;;;5048777;28;20202;-66
2022/03/07 11:51:26;;;;;;;2.10;0.80;;;;;;;;;;5032130;28;20054;-67
2022/03/07 11:53:53;;;;;;;4.18;1.08;;;;;;;;;;5047821;28;20048;-66
2022/03/07 11:56:21;;;;;;;5.78;1.40;;;;;;;;;;5045531;28;20135;-66
2022/03/07 11:58:49;;;;;;;11.35;1.10;;;;;;;;;;5040714;28;20519;-66
2022/03/07 12:01:15;;;;;;;4.45;1.00;;;;;;;;;;5049436;28;20088;-66
2022/03/07 12:03:41;;;;;;;3.38;0.90;;;;;;;;;;5034813;28;20044;-66
2022/03/07 12:06:11;;;;;;;7.43;1.27;;;;;;;;;;5051262;28;20033;-67
2022/03/07 12:08:44;;;;;;;5.13;1.13;;;;;;;;;;5038575;28;20162;-66
2022/03/07 12:11:11;;;;;;;7.00;1.10;;;;;;;;;;5065579;28;20040;-66
2022/03/07 12:13:46;;;;;;;3.65;0.90;;;;;;;;;;5063421;28;20051;-66
2022/03/07 12:16:12;;;;;;;4.57;1.00;;;;;;;;;;5047196;28;20052;-66
2022/03/07 12:18:38;;;;;;;5.78;1.00;;;;;;;;;;5036910;28;20123;-68
2022/03/07 12:21:04;;;;;;;4.95;1.10;;;;;;;;;;5028713;28;20171;-68
2022/03/07 12:23:35;;;;;;;2.65;0.80;;;;;;;;;;5027943;28;20098;-67
2022/03/07 12:26:05;;;;;;;3.53;0.90;;;;;;;;;;5050076;28;20048;-67
2022/03/07 12:28:32;;;;;;;4.00;0.80;;;;;;;;;;5020948;28;20036;-67
2022/03/07 12:30:58;;;;;;;2.22;0.70;;;;;;;;;;5033251;28;20041;-67
2022/03/07 12:33:25;;;;;;;4.07;1.00;;;;;;;;;;5043590;28;20044;-68
2022/03/07 12:36:04;;;;;;;3.95;0.70;;;;;;;;;;5046389;28;20033;-68
2022/03/07 12:38:31;;;;;;;2.70;0.88;;;;;;;;;;5054365;28;20041;-69
2022/03/07 12:40:59;;;;;;;3.30;1.00;;;;;;;;;;5065740;28;20417;-68
2022/03/07 12:43:26;;;;;;;3.55;1.13;;;;;;;;;;5056041;28;20112;-68
2022/03/07 12:45:55;;;;;;;4.75;0.80;;;;;;;;;;5033452;28;20118;-66
2022/03/07 12:48:21;;;;;;;1.77;0.70;;;;;;;;;;5042882;28;20393;-66
2022/03/07 12:50:47;;;;;;;4.13;1.08;;;;;;;;;;5060441;28;20043;-68
2022/03/07 12:53:13;;;;;;;2.17;0.80;;;;;;;;;;5061211;28;20119;-67
2022/03/07 12:55:40;;;;;;;2.42;0.70;;;;;;;;;;5063014;28;20118;-67
2022/03/07 12:58:06;;;;;;;2.30;0.80;;;;;;;;;;5062741;28;20044;-67
2022/03/07 13:00:32;;;;;;;1.92;0.70;;;;;;;;;;5063577;28;20079;-67
2022/03/07 13:02:59;;;;;;;3.30;0.88;;;;;;;;;;5058481;28;20041;-66
2022/03/07 13:05:26;;;;;;;2.83;0.80;;;;;;;;;;5062948;28;20552;-67
2022/03/07 13:08:00;;;;;;;3.97;0.70;;;;;;;;;;5061172;28;20044;-67
2022/03/07 13:10:27;;;;;;;2.25;0.77;;;;;;;;;;5063422;28;20620;-67
2022/03/07 13:12:53;;;;;;;2.33;0.70;;;;;;;;;;5060546;28;20136;-67
2022/03/07 13:15:20;;;;;;;1.75;0.70;;;;;;;;;;5058315;28;20040;-66
2022/03/07 13:17:45;;;;;;;2.55;0.80;;;;;;;;;;5058325;28;20128;-66
2022/03/07 13:20:11;;;;;;;2.05;0.75;;;;;;;;;;5064806;28;20139;-67
2022/03/07 13:22:38;;;;;;;3.53;0.80;;;;;;;;;;5063264;28;20590;-67
2022/03/07 13:25:05;;;;;;;3.70;0.80;;;;;;;;;;5046171;28;20041;-67
2022/03/07 13:27:31;;;;;;;2.05;0.70;;;;;;;;;;5061140;28;20048;-66
2022/03/07 13:30:03;;;;;;;2.55;0.73;;;;;;;;;;5049628;28;20033;-67
2022/03/07 13:32:32;;;;;;;2.78;0.65;;;;;;;;;;5052610;28;20135;-66
2022/03/07 13:34:58;;;;;;;1.92;0.70;;;;;;;;;;5037162;28;20048;-66
2022/03/07 13:37:38;;;;;;;2.53;0.80;;;;;;;;;;5059467;28;20067;-66
2022/03/07 13:40:07;;;;;;;3.35;0.95;;;;;;;;;;5066373;28;20051;-67
2022/03/07 13:42:41;;;;;;;2.60;0.77;;;;;;;;;;5032784;28;21022;-67
2022/03/07 13:45:09;;;;;;;2.45;0.70;;;;;;;;;;5040999;28;20037;-66
2022/03/07 13:47:36;;;;;;;2.97;0.80;;;;;;;;;;5048037;28;20040;-66
2022/03/07 13:50:06;;;;;;;5.60;1.00;;;;;;;;;;5062693;28;20048;-67
2022/03/07 13:52:35;;;;;;;2.70;0.85;;;;;;;;;;5061961;28;20044;-66
2022/03/07 13:55:02;;;;;;;3.63;0.70;;;;;;;;;;5063464;28;20236;-67
2022/03/07 13:57:29;;;;;;;3.17;0.65;;;;;;;;;;5062988;28;20048;-67
2022/03/07 13:59:57;;;;;;;2.15;0.70;;;;;;;;;;5033331;28;20039;-66
2022/03/07 14:02:23;;;;;;;4.10;0.80;;;;;;;;;;5027267;28;20053;-66
2022/03/07 14:04:54;;;;;;;5.25;0.80;;;;;;;;;;5047792;28;20070;-66
2022/03/07 14:07:21;;;;;;;2.22;0.70;;;;;;;;;;5052879;28;20036;-66
2022/03/07 14:09:51;;;;;;;3.75;1.00;;;;;;;;;;5048143;28;21596;-67
2022/03/07 14:12:24;;;;;;;5.50;1.00;;;;;;;;;;5048732;28;20068;-67
2022/03/07 14:15:00;;;;;;;42.15;3.08;;;;;;;;;;5052701;28;20552;-67
2022/03/07 14:17:26;;;;;;;31.35;3.90;;;;;;;;;;5061483;28;20052;-67
2022/03/07 14:19:52;;;;;;;24.88;3.42;;;;;;;;;;5058671;28;20054;-67
2022/03/07 14:22:19;;;;;;;15.70;2.50;;;;;;;;;;5043512;28;20140;-67
2022/03/07 14:24:46;;;;;;;10.27;1.60;;;;;;;;;;5035427;28;20052;-67
2022/03/07 14:27:12;;;;;;;8.73;1.60;;;;;;;;;;5045495;28;20430;-67
2022/03/07 14:29:38;;;;;;;9.15;1.77;;;;;;;;;;5047994;28;20055;-67
2022/03/07 14:32:05;;;;;;;8.23;1.75;;;;;;;;;;5049498;28;20041;-67
2022/03/07 14:34:31;;;;;;;8.85;1.98;;;;;;;;;;5069256;28;20632;-67
2022/03/07 14:36:57;;;;;;;4.30;1.20;;;;;;;;;;5071711;28;20067;-67
2022/03/07 14:39:23;;;;;;;6.68;1.65;;;;;;;;;;5068198;28;20052;-69